sensor_id;sensor_type;location;lat;lon;timestamp;pressure;altitude;pressure_sealevel;temperature;humidity
17438;BME280;73152;52.198;5.422;2024-02-26T00:01:32;99875.81;;;20.57;44.90
17438;BME280;73152;52.198;5.422;2024-02-26T00:04:02;99880.38;;;20.57;45.24
17438;BME280;73152;52.198;5.422;2024-02-26T00:06:31;99879.34;;;20.58;45.23
17438;BME280;73152;52.198;5.422;2024-02-26T00:09:00;99882.25;;;20.56;45.26
17438;BME280;73152;52.198;5.422;2024-02-26T00:11:35;99872.31;;;20.57;45.20
17438;BME280;73152;52.198;5.422;2024-02-26T00:14:04;99880.38;;;20.57;45.22
17438;BME280;73152;52.198;5.422;2024-02-26T00:19:59;99881.63;;;20.54;45.15
17438;BME280;73152;52.198;5.422;2024-02-26T00:22:30;99886.00;;;20.55;44.89
17438;BME280;73152;52.198;5.422;2024-02-26T00:24:59;99881.63;;;20.54;45.01
17438;BME280;73152;52.198;5.422;2024-02-26T00:34:23;99880.44;;;20.50;45.06
17438;BME280;73152;52.198;5.422;2024-02-26T00:36:52;99895.31;;;20.53;45.17
17438;BME280;73152;52.198;5.422;2024-02-26T00:39:21;99893.47;;;20.53;45.19
17438;BME280;73152;52.198;5.422;2024-02-26T00:41:49;99896.16;;;20.53;44.81
17438;BME280;73152;52.198;5.422;2024-02-26T00:44:19;99889.09;;;20.52;45.12
17438;BME280;73152;52.198;5.422;2024-02-26T00:46:48;99889.09;;;20.52;44.82
17438;BME280;73152;52.198;5.422;2024-02-26T00:49:17;99889.09;;;20.52;45.18
17438;BME280;73152;52.198;5.422;2024-02-26T00:58:41;99900.28;;;20.49;45.19
17438;BME280;73152;52.198;5.422;2024-02-26T01:01:10;99899.50;;;20.49;44.96
17438;BME280;73152;52.198;5.422;2024-02-26T01:03:39;99895.13;;;20.48;44.96
17438;BME280;73152;52.198;5.422;2024-02-26T01:06:08;99901.97;;;20.50;44.85
17438;BME280;73152;52.198;5.422;2024-02-26T01:08:36;99900.28;;;20.49;45.13
17438;BME280;73152;52.198;5.422;2024-02-26T01:11:06;99899.28;;;20.50;45.07
17438;BME280;73152;52.198;5.422;2024-02-26T01:13:34;99903.81;;;20.50;45.13
17438;BME280;73152;52.198;5.422;2024-02-26T01:16:06;99902.19;;;20.49;44.74
17438;BME280;73152;52.198;5.422;2024-02-26T01:18:36;99894.13;;;20.49;44.70
17438;BME280;73152;52.198;5.422;2024-02-26T01:21:05;99898.66;;;20.48;45.12
17438;BME280;73152;52.198;5.422;2024-02-26T01:26:56;99893.69;;;20.45;44.88
17438;BME280;73152;52.198;5.422;2024-02-26T01:29:29;99895.38;;;20.46;45.04
17438;BME280;73152;52.198;5.422;2024-02-26T01:32:01;99892.66;;;20.46;44.79
17438;BME280;73152;52.198;5.422;2024-02-26T01:37:58;99892.06;;;20.44;44.81
17438;BME280;73152;52.198;5.422;2024-02-26T01:44:28;99889.56;;;20.43;45.17
17438;BME280;73152;52.198;5.422;2024-02-26T01:46:57;99883.34;;;20.42;45.15
17438;BME280;73152;52.198;5.422;2024-02-26T01:56:32;99881.78;;;20.35;45.19
17438;BME280;73152;52.198;5.422;2024-02-26T01:59:03;99895.19;;;20.41;44.85
17438;BME280;73152;52.198;5.422;2024-02-26T02:01:34;99891.44;;;20.42;44.79
17438;BME280;73152;52.198;5.422;2024-02-26T02:04:04;99892.50;;;20.41;44.90
17438;BME280;73152;52.198;5.422;2024-02-26T02:06:33;99904.88;;;20.42;45.04
17438;BME280;73152;52.198;5.422;2024-02-26T02:09:02;99899.50;;;20.42;44.93
17438;BME280;73152;52.198;5.422;2024-02-26T02:11:35;99903.03;;;20.43;45.09
17438;BME280;73152;52.198;5.422;2024-02-26T02:14:04;99902.19;;;20.42;45.14
17438;BME280;73152;52.198;5.422;2024-02-26T02:16:33;99904.88;;;20.42;44.91
17438;BME280;73152;52.198;5.422;2024-02-26T02:19:02;99903.25;;;20.41;45.06
17438;BME280;73152;52.198;5.422;2024-02-26T02:21:33;99899.97;;;20.39;45.30
17438;BME280;73152;52.198;5.422;2024-02-26T02:24:02;99898.72;;;20.42;45.17
17438;BME280;73152;52.198;5.422;2024-02-26T02:26:31;99907.81;;;20.41;45.40
17438;BME280;73152;52.198;5.422;2024-02-26T02:29:28;99920.22;;;20.42;45.15
17438;BME280;73152;52.198;5.422;2024-02-26T02:32:28;99915.88;;;20.41;45.25
17438;BME280;73152;52.198;5.422;2024-02-26T02:34:58;99910.72;;;20.39;45.05
17438;BME280;73152;52.198;5.422;2024-02-26T02:41:23;99915.50;;;20.37;45.36
17438;BME280;73152;52.198;5.422;2024-02-26T02:43:53;99919.81;;;20.38;45.34
17438;BME280;73152;52.198;5.422;2024-02-26T02:46:22;99924.97;;;20.40;45.09
17438;BME280;73152;52.198;5.422;2024-02-26T02:48:51;99922.28;;;20.40;45.08
17438;BME280;73152;52.198;5.422;2024-02-26T02:51:19;99929.34;;;20.41;45.32
17438;BME280;73152;52.198;5.422;2024-02-26T02:57:17;99931.66;;;20.37;45.04
17438;BME280;73152;52.198;5.422;2024-02-26T02:59:46;99928.97;;;20.37;45.10
17438;BME280;73152;52.198;5.422;2024-02-26T03:05:30;99944.03;;;20.38;45.05
17438;BME280;73152;52.198;5.422;2024-02-26T03:07:59;99946.72;;;20.38;45.41
17438;BME280;73152;52.198;5.422;2024-02-26T03:10:28;99942.19;;;20.39;45.24
17438;BME280;73152;52.198;5.422;2024-02-26T03:12:59;99955.41;;;20.40;45.35
17438;BME280;73152;52.198;5.422;2024-02-26T03:15:28;99958.09;;;20.40;45.13
17438;BME280;73152;52.198;5.422;2024-02-26T03:21:27;99955.22;;;20.35;44.98
17438;BME280;73152;52.198;5.422;2024-02-26T03:23:56;99965.56;;;20.38;45.10
17438;BME280;73152;52.198;5.422;2024-02-26T03:29:48;99968.50;;;20.37;45.26
17438;BME280;73152;52.198;5.422;2024-02-26T03:32:30;99966.63;;;20.37;45.07
17438;BME280;73152;52.198;5.422;2024-02-26T03:34:59;99966.63;;;20.37;45.23
17438;BME280;73152;52.198;5.422;2024-02-26T03:41:34;99982.78;;;20.37;45.15
17438;BME280;73152;52.198;5.422;2024-02-26T03:44:04;99986.72;;;20.35;44.95
17438;BME280;73152;52.198;5.422;2024-02-26T03:50:03;99993.72;;;20.36;44.99
17438;BME280;73152;52.198;5.422;2024-02-26T03:52:33;100005.94;;;20.38;44.91
17438;BME280;73152;52.198;5.422;2024-02-26T03:55:02;99998.09;;;20.37;45.14
17438;BME280;73152;52.198;5.422;2024-02-26T04:00:57;100011.53;;;20.37;44.96
17438;BME280;73152;52.198;5.422;2024-02-26T04:03:26;100008.00;;;20.36;44.94
17438;BME280;73152;52.198;5.422;2024-02-26T04:05:57;100008.00;;;20.36;45.28
17438;BME280;73152;52.198;5.422;2024-02-26T04:08:58;100005.94;;;20.38;44.83
17438;BME280;73152;52.198;5.422;2024-02-26T04:11:29;100010.94;;;20.35;45.18
17438;BME280;73152;52.198;5.422;2024-02-26T04:13:59;100008.84;;;20.37;45.18
17438;BME280;73152;52.198;5.422;2024-02-26T04:16:29;100008.84;;;20.37;44.79
17438;BME280;73152;52.198;5.422;2024-02-26T04:18:57;100012.56;;;20.36;44.83
17438;BME280;73152;52.198;5.422;2024-02-26T04:21:29;100008.00;;;20.36;45.19
17438;BME280;73152;52.198;5.422;2024-02-26T04:23:58;100010.09;;;20.34;44.78
17438;BME280;73152;52.198;5.422;2024-02-26T04:29:54;100022.50;;;20.35;45.03
17438;BME280;73152;52.198;5.422;2024-02-26T04:32:22;100034.09;;;20.36;44.74
17438;BME280;73152;52.198;5.422;2024-02-26T04:34:51;100025.19;;;20.35;44.80
17438;BME280;73152;52.198;5.422;2024-02-26T04:40:39;100033.47;;;20.34;45.10
17438;BME280;73152;52.198;5.422;2024-02-26T04:43:08;100034.31;;;20.34;44.98
17438;BME280;73152;52.198;5.422;2024-02-26T04:45:37;100035.34;;;20.33;45.00
17438;BME280;73152;52.198;5.422;2024-02-26T04:48:07;100036.19;;;20.34;45.18
17438;BME280;73152;52.198;5.422;2024-02-26T04:50:36;100038.66;;;20.35;44.89
17438;BME280;73152;52.198;5.422;2024-02-26T04:53:04;100029.78;;;20.35;44.95
17438;BME280;73152;52.198;5.422;2024-02-26T04:55:34;100037.00;;;20.34;44.92
17438;BME280;73152;52.198;5.422;2024-02-26T05:01:31;100038.03;;;20.33;45.10
17438;BME280;73152;52.198;5.422;2024-02-26T05:04:01;100035.34;;;20.33;44.75
17438;BME280;73152;52.198;5.422;2024-02-26T05:06:31;100040.53;;;20.35;44.75
17438;BME280;73152;52.198;5.422;2024-02-26T05:09:00;100041.56;;;20.34;45.11
17438;BME280;73152;52.198;5.422;2024-02-26T05:11:29;100050.47;;;20.34;45.06
17438;BME280;73152;52.198;5.422;2024-02-26T05:13:58;100050.47;;;20.34;45.06
17438;BME280;73152;52.198;5.422;2024-02-26T05:16:27;100047.78;;;20.34;45.06
17438;BME280;73152;52.198;5.422;2024-02-26T05:18:59;100054.78;;;20.35;44.90
17438;BME280;73152;52.198;5.422;2024-02-26T05:31:50;100073.47;;;20.30;45.11
17438;BME280;73152;52.198;5.422;2024-02-26T05:34:22;100070.75;;;20.30;44.98
17438;BME280;73152;52.198;5.422;2024-02-26T05:40:18;100067.25;;;20.30;45.03
17438;BME280;73152;52.198;5.422;2024-02-26T05:50:07;100087.94;;;20.29;45.25
17438;BME280;73152;52.198;5.422;2024-02-26T05:52:36;100091.66;;;20.28;44.99
17438;BME280;73152;52.198;5.422;2024-02-26T05:55:07;100097.69;;;20.30;44.98
17438;BME280;73152;52.198;5.422;2024-02-26T06:01:20;100097.88;;;20.29;45.08
17438;BME280;73152;52.198;5.422;2024-02-26T06:07:19;100099.72;;;20.28;44.89
17438;BME280;73152;52.198;5.422;2024-02-26T06:10:16;100106.78;;;20.29;44.90
17438;BME280;73152;52.198;5.422;2024-02-26T06:16:13;100106.16;;;20.27;45.08
17438;BME280;73152;52.198;5.422;2024-02-26T06:18:42;100107.78;;;20.28;45.04
17438;BME280;73152;52.198;5.422;2024-02-26T06:21:11;100104.06;;;20.29;44.83
17438;BME280;73152;52.198;5.422;2024-02-26T06:23:42;100111.13;;;20.30;44.96
17438;BME280;73152;52.198;5.422;2024-02-26T06:26:11;100123.75;;;20.30;44.94
17438;BME280;73152;52.198;5.422;2024-02-26T06:28:40;100131.00;;;20.29;45.14
17438;BME280;73152;52.198;5.422;2024-02-26T06:31:09;100141.75;;;20.29;45.03
17438;BME280;73152;52.198;5.422;2024-02-26T06:33:38;100137.19;;;20.30;45.21
17438;BME280;73152;52.198;5.422;2024-02-26T06:36:07;100139.06;;;20.29;45.07
17438;BME280;73152;52.198;5.422;2024-02-26T06:42:05;100138.44;;;20.27;44.92
17438;BME280;73152;52.198;5.422;2024-02-26T06:44:34;100144.44;;;20.29;44.79
17438;BME280;73152;52.198;5.422;2024-02-26T06:47:04;100140.91;;;20.29;44.97
17438;BME280;73152;52.198;5.422;2024-02-26T06:49:32;100153.34;;;20.30;44.79
17438;BME280;73152;52.198;5.422;2024-02-26T06:52:02;100155.19;;;20.29;44.76
17438;BME280;73152;52.198;5.422;2024-02-26T06:54:32;100159.75;;;20.29;44.88
17438;BME280;73152;52.198;5.422;2024-02-26T06:57:01;100163.28;;;20.29;45.02
17438;BME280;73152;52.198;5.422;2024-02-26T06:59:32;100170.31;;;20.30;45.07
17438;BME280;73152;52.198;5.422;2024-02-26T07:02:01;100168.25;;;20.32;44.66
17438;BME280;73152;52.198;5.422;2024-02-26T07:07:56;100171.56;;;20.28;44.65
17438;BME280;73152;52.198;5.422;2024-02-26T07:10:25;100183.78;;;20.30;44.92
17438;BME280;73152;52.198;5.422;2024-02-26T07:12:54;100170.31;;;20.30;44.83
17438;BME280;73152;52.198;5.422;2024-02-26T07:15:25;100186.47;;;20.30;44.76
17438;BME280;73152;52.198;5.422;2024-02-26T07:17:54;100182.94;;;20.30;44.83
17438;BME280;73152;52.198;5.422;2024-02-26T07:20:23;100182.94;;;20.30;44.68
17438;BME280;73152;52.198;5.422;2024-02-26T07:22:52;100191.03;;;20.30;44.94
17438;BME280;73152;52.198;5.422;2024-02-26T07:25:21;100191.84;;;20.30;44.91
17438;BME280;73152;52.198;5.422;2024-02-26T07:27:50;100201.56;;;20.31;44.44
17438;BME280;73152;52.198;5.422;2024-02-26T07:30:19;100203.63;;;20.29;44.87
17438;BME280;73152;52.198;5.422;2024-02-26T07:32:50;100207.16;;;20.30;44.92
17438;BME280;73152;52.198;5.422;2024-02-26T07:35:19;100208.00;;;20.30;44.47
17438;BME280;73152;52.198;5.422;2024-02-26T07:37:48;100206.72;;;20.26;44.54
17438;BME280;73152;52.198;5.422;2024-02-26T07:40:18;100213.38;;;20.30;44.80
17438;BME280;73152;52.198;5.422;2024-02-26T07:42:47;100206.31;;;20.29;44.92
17438;BME280;73152;52.198;5.422;2024-02-26T07:45:16;100207.16;;;20.30;44.64
17438;BME280;73152;52.198;5.422;2024-02-26T07:47:45;100200.72;;;20.31;44.80
17438;BME280;73152;52.198;5.422;2024-02-26T07:50:17;100208.63;;;20.32;44.23
17438;BME280;73152;52.198;5.422;2024-02-26T07:52:46;100213.38;;;20.30;44.66
17438;BME280;73152;52.198;5.422;2024-02-26T07:55:17;100221.22;;;20.32;44.51
17438;BME280;73152;52.198;5.422;2024-02-26T07:57:45;100216.69;;;20.32;44.47
17438;BME280;73152;52.198;5.422;2024-02-26T08:00:16;100227.44;;;20.32;44.84
17438;BME280;73152;52.198;5.422;2024-02-26T08:02:45;100232.63;;;20.34;44.44
17438;BME280;73152;52.198;5.422;2024-02-26T08:05:17;100234.47;;;20.33;44.54
17438;BME280;73152;52.198;5.422;2024-02-26T08:07:46;100244.44;;;20.33;44.31
17438;BME280;73152;52.198;5.422;2024-02-26T08:10:15;100240.69;;;20.34;44.54
17438;BME280;73152;52.198;5.422;2024-02-26T08:12:44;100241.53;;;20.34;44.24
17438;BME280;73152;52.198;5.422;2024-02-26T08:15:13;100253.75;;;20.37;43.71
17438;BME280;73152;52.198;5.422;2024-02-26T08:17:42;100253.75;;;20.37;44.17
17438;BME280;73152;52.198;5.422;2024-02-26T08:20:16;100259.31;;;20.35;44.11
17438;BME280;73152;52.198;5.422;2024-02-26T08:22:44;100253.94;;;20.35;44.39
17438;BME280;73152;52.198;5.422;2024-02-26T08:25:13;100257.88;;;20.39;44.09
17438;BME280;73152;52.198;5.422;2024-02-26T08:27:43;100271.75;;;20.36;44.60
17438;BME280;73152;52.198;5.422;2024-02-26T08:30:14;100264.69;;;20.35;44.35
17438;BME280;73152;52.198;5.422;2024-02-26T08:32:43;100271.75;;;20.36;44.65
17438;BME280;73152;52.198;5.422;2024-02-26T08:35:15;100270.06;;;20.35;44.34
17438;BME280;73152;52.198;5.422;2024-02-26T08:37:44;100275.06;;;20.38;44.21
17438;BME280;73152;52.198;5.422;2024-02-26T08:40:14;100271.97;;;20.41;44.21
17438;BME280;73152;52.198;5.422;2024-02-26T08:42:43;100278.56;;;20.39;44.66
17438;BME280;73152;52.198;5.422;2024-02-26T08:45:12;100275.06;;;20.38;44.56
17438;BME280;73152;52.198;5.422;2024-02-26T08:47:41;100280.88;;;20.42;44.76
17438;BME280;73152;52.198;5.422;2024-02-26T08:50:10;100280.88;;;20.42;44.71
17438;BME280;73152;52.198;5.422;2024-02-26T08:52:41;100296.78;;;20.43;44.66
17438;BME280;73152;52.198;5.422;2024-02-26T08:55:14;100299.50;;;20.43;44.55
17438;BME280;73152;52.198;5.422;2024-02-26T09:01:09;100312.31;;;20.41;44.86
17438;BME280;73152;52.198;5.422;2024-02-26T09:03:38;100304.88;;;20.43;44.71
17438;BME280;73152;52.198;5.422;2024-02-26T09:06:09;100312.94;;;20.43;45.07
17438;BME280;73152;52.198;5.422;2024-02-26T09:08:41;100308.19;;;20.45;44.69
17438;BME280;73152;52.198;5.422;2024-02-26T09:11:09;100325.16;;;20.46;44.98
17438;BME280;73152;52.198;5.422;2024-02-26T09:13:38;100320.63;;;20.46;44.97
17438;BME280;73152;52.198;5.422;2024-02-26T09:16:08;100317.94;;;20.46;44.93
17438;BME280;73152;52.198;5.422;2024-02-26T09:18:39;100329.72;;;20.45;44.88
17438;BME280;73152;52.198;5.422;2024-02-26T09:21:08;100328.47;;;20.48;44.35
17438;BME280;73152;52.198;5.422;2024-02-26T09:23:40;100329.09;;;20.43;44.80
17438;BME280;73152;52.198;5.422;2024-02-26T09:26:08;100333.47;;;20.44;44.67
17438;BME280;73152;52.198;5.422;2024-02-26T09:28:37;100337.78;;;20.45;44.84
17438;BME280;73152;52.198;5.422;2024-02-26T09:31:06;100331.38;;;20.46;44.68
17438;BME280;73152;52.198;5.422;2024-02-26T09:33:35;100334.88;;;20.47;44.65
17438;BME280;73152;52.198;5.422;2024-02-26T09:36:05;100333.03;;;20.47;44.33
17438;BME280;73152;52.198;5.422;2024-02-26T09:38:36;100350.00;;;20.48;44.57
17438;BME280;73152;52.198;5.422;2024-02-26T09:41:15;100347.53;;;20.46;44.56
17438;BME280;73152;52.198;5.422;2024-02-26T09:43:45;100353.53;;;20.48;44.05
17438;BME280;73152;52.198;5.422;2024-02-26T09:46:15;100353.09;;;20.45;44.43
17438;BME280;73152;52.198;5.422;2024-02-26T09:52:42;100374.84;;;20.43;44.76
17438;BME280;73152;52.198;5.422;2024-02-26T09:55:11;100366.78;;;20.43;44.84
17438;BME280;73152;52.198;5.422;2024-02-26T09:57:46;100371.75;;;20.46;44.56
17438;BME280;73152;52.198;5.422;2024-02-26T10:00:18;100363.25;;;20.49;44.09
17438;BME280;73152;52.198;5.422;2024-02-26T10:02:48;100375.69;;;20.50;44.06
17438;BME280;73152;52.198;5.422;2024-02-26T10:05:18;100387.69;;;20.48;44.29
17438;BME280;73152;52.198;5.422;2024-02-26T10:07:48;100389.16;;;20.50;44.00
17438;BME280;73152;52.198;5.422;2024-02-26T10:10:17;100378.38;;;20.50;44.32
17438;BME280;73152;52.198;5.422;2024-02-26T10:12:49;100388.53;;;20.48;44.21
17438;BME280;73152;52.198;5.422;2024-02-26T10:19:02;100403.44;;;20.51;44.17
17438;BME280;73152;52.198;5.422;2024-02-26T10:21:31;100400.75;;;20.51;44.24
17438;BME280;73152;52.198;5.422;2024-02-26T10:27:28;100402.22;;;20.53;43.66
17438;BME280;73152;52.198;5.422;2024-02-26T10:30:04;100414.22;;;20.51;44.31
17438;BME280;73152;52.198;5.422;2024-02-26T10:32:33;100423.31;;;20.50;44.13
17438;BME280;73152;52.198;5.422;2024-02-26T10:35:08;100422.47;;;20.49;44.25
17438;BME280;73152;52.198;5.422;2024-02-26T10:37:37;100427.47;;;20.52;44.33
17438;BME280;73152;52.198;5.422;2024-02-26T10:40:10;100435.31;;;20.54;44.20
17438;BME280;73152;52.198;5.422;2024-02-26T10:42:39;100427.06;;;20.55;44.47
17438;BME280;73152;52.198;5.422;2024-02-26T10:45:10;100431.22;;;20.58;44.47
17438;BME280;73152;52.198;5.422;2024-02-26T10:47:40;100439.28;;;20.58;44.20
17438;BME280;73152;52.198;5.422;2024-02-26T10:50:34;100444.47;;;20.59;44.40
17438;BME280;73152;52.198;5.422;2024-02-26T10:53:11;100456.91;;;20.60;44.06
17438;BME280;73152;52.198;5.422;2024-02-26T10:55:43;100454.00;;;20.62;44.36
17438;BME280;73152;52.198;5.422;2024-02-26T10:58:15;100459.59;;;20.60;44.30
17438;BME280;73152;52.198;5.422;2024-02-26T11:00:49;100459.16;;;20.63;44.26
17438;BME280;73152;52.198;5.422;2024-02-26T11:03:29;100466.00;;;20.66;44.16
17438;BME280;73152;52.198;5.422;2024-02-26T11:06:01;100467.06;;;20.65;43.98
17438;BME280;73152;52.198;5.422;2024-02-26T11:08:32;100471.59;;;20.64;44.20
17438;BME280;73152;52.198;5.422;2024-02-26T11:11:01;100490.06;;;20.67;44.12
17438;BME280;73152;52.198;5.422;2024-02-26T11:13:31;100478.44;;;20.67;43.76
17438;BME280;73152;52.198;5.422;2024-02-26T11:16:04;100488.00;;;20.69;43.68
17438;BME280;73152;52.198;5.422;2024-02-26T11:18:36;100498.53;;;20.71;43.82
17438;BME280;73152;52.198;5.422;2024-02-26T11:21:07;100497.94;;;20.69;43.65
17438;BME280;73152;52.198;5.422;2024-02-26T11:23:36;100500.00;;;20.73;43.74
17438;BME280;73152;52.198;5.422;2024-02-26T11:26:08;100493.78;;;20.73;43.65
17438;BME280;73152;52.198;5.422;2024-02-26T11:35:05;100494.63;;;20.73;43.38
17438;BME280;73152;52.198;5.422;2024-02-26T11:37:36;100503.31;;;20.75;43.38
17438;BME280;73152;52.198;5.422;2024-02-26T11:40:11;100506.63;;;20.77;43.22
17438;BME280;73152;52.198;5.422;2024-02-26T11:42:44;100506.63;;;20.77;43.07
17438;BME280;73152;52.198;5.422;2024-02-26T11:45:50;100514.53;;;20.79;42.80
17438;BME280;73152;52.198;5.422;2024-02-26T11:48:24;100514.72;;;20.77;42.81
17438;BME280;73152;52.198;5.422;2024-02-26T11:54:55;100532.34;;;20.80;42.65
17438;BME280;73152;52.198;5.422;2024-02-26T11:57:27;100526.72;;;20.82;42.84
17438;BME280;73152;52.198;5.422;2024-02-26T12:00:11;100531.50;;;20.79;42.82
17438;BME280;73152;52.198;5.422;2024-02-26T12:02:44;100532.53;;;20.78;42.77
17438;BME280;73152;52.198;5.422;2024-02-26T12:05:16;100529.41;;;20.75;42.54
17438;BME280;73152;52.198;5.422;2024-02-26T12:07:47;100535.88;;;20.81;42.50
17438;BME280;73152;52.198;5.422;2024-02-26T12:10:24;100549.34;;;20.81;42.77
17438;BME280;73152;52.198;5.422;2024-02-26T12:12:59;100537.50;;;20.82;42.43
17438;BME280;73152;52.198;5.422;2024-02-26T12:15:32;100540.00;;;20.83;42.28
17438;BME280;73152;52.198;5.422;2024-02-26T12:18:04;100548.94;;;20.84;42.24
17438;BME280;73152;52.198;5.422;2024-02-26T12:20:35;100558.88;;;20.83;42.27
17438;BME280;73152;52.198;5.422;2024-02-26T12:23:05;100559.72;;;20.84;42.25
17438;BME280;73152;52.198;5.422;2024-02-26T12:25:37;100562.81;;;20.87;42.14
17438;BME280;73152;52.198;5.422;2024-02-26T12:28:07;100567.38;;;20.87;42.27
17438;BME280;73152;52.198;5.422;2024-02-26T12:30:36;100565.50;;;20.87;42.47
17438;BME280;73152;52.198;5.422;2024-02-26T12:33:05;100571.72;;;20.88;42.25
17438;BME280;73152;52.198;5.422;2024-02-26T12:35:36;100570.50;;;20.90;42.00
17438;BME280;73152;52.198;5.422;2024-02-26T12:38:05;100571.50;;;20.89;42.04
17438;BME280;73152;52.198;5.422;2024-02-26T12:40:36;100574.22;;;20.89;42.20
17438;BME280;73152;52.198;5.422;2024-02-26T12:43:05;100577.75;;;20.90;41.90
17438;BME280;73152;52.198;5.422;2024-02-26T12:45:39;100577.97;;;20.88;42.10
17438;BME280;73152;52.198;5.422;2024-02-26T12:48:12;100585.81;;;20.90;42.27
17438;BME280;73152;52.198;5.422;2024-02-26T12:50:45;100593.28;;;20.88;42.22
17438;BME280;73152;52.198;5.422;2024-02-26T12:53:15;100592.44;;;20.87;42.17
17438;BME280;73152;52.198;5.422;2024-02-26T12:55:47;100590.38;;;20.89;41.93
17438;BME280;73152;52.198;5.422;2024-02-26T12:58:16;100589.13;;;20.85;41.88
17438;BME280;73152;52.198;5.422;2024-02-26T13:00:46;100608.59;;;20.87;41.94
17438;BME280;73152;52.198;5.422;2024-02-26T13:03:15;100608.59;;;20.87;42.14
17438;BME280;73152;52.198;5.422;2024-02-26T13:05:45;100609.84;;;20.85;41.81
17438;BME280;73152;52.198;5.422;2024-02-26T13:08:18;100611.50;;;20.86;42.13
17438;BME280;73152;52.198;5.422;2024-02-26T13:10:49;100616.91;;;20.86;41.72
17438;BME280;73152;52.198;5.422;2024-02-26T13:13:19;100609.84;;;20.85;41.91
17438;BME280;73152;52.198;5.422;2024-02-26T13:15:48;100614.19;;;20.86;41.78
17438;BME280;73152;52.198;5.422;2024-02-26T13:18:17;100616.28;;;20.84;41.63
17438;BME280;73152;52.198;5.422;2024-02-26T13:20:43;100617.91;;;20.85;41.89
17438;BME280;73152;52.198;5.422;2024-02-26T13:23:13;100624.34;;;20.84;41.67
17438;BME280;73152;52.198;5.422;2024-02-26T13:25:42;100618.97;;;20.84;41.63
17438;BME280;73152;52.198;5.422;2024-02-26T13:28:16;100617.91;;;20.85;41.59
17438;BME280;73152;52.198;5.422;2024-02-26T13:30:51;100631.38;;;20.85;42.01
17438;BME280;73152;52.198;5.422;2024-02-26T13:33:23;100635.94;;;20.84;41.89
17438;BME280;73152;52.198;5.422;2024-02-26T13:35:53;100626.81;;;20.78;41.92
17438;BME280;73152;52.198;5.422;2024-02-26T13:38:22;100626.38;;;20.82;41.88
17438;BME280;73152;52.198;5.422;2024-02-26T13:40:52;100634.28;;;20.83;41.90
17438;BME280;73152;52.198;5.422;2024-02-26T13:43:23;100632.63;;;20.82;41.74
17438;BME280;73152;52.198;5.422;2024-02-26T13:45:52;100638.84;;;20.83;41.76
17438;BME280;73152;52.198;5.422;2024-02-26T13:48:22;100642.53;;;20.82;41.56
17438;BME280;73152;52.198;5.422;2024-02-26T13:50:52;100642.53;;;20.82;41.80
17438;BME280;73152;52.198;5.422;2024-02-26T13:53:20;100646.50;;;20.79;41.52
17438;BME280;73152;52.198;5.422;2024-02-26T13:55:50;100646.28;;;20.81;41.61
17438;BME280;73152;52.198;5.422;2024-02-26T13:58:19;100656.00;;;20.82;41.78
17438;BME280;73152;52.198;5.422;2024-02-26T14:00:52;100656.22;;;20.80;41.60
17438;BME280;73152;52.198;5.422;2024-02-26T14:03:21;100655.00;;;20.83;41.61
17438;BME280;73152;52.198;5.422;2024-02-26T14:05:53;100651.06;;;20.78;41.53
17438;BME280;73152;52.198;5.422;2024-02-26T14:08:22;100660.38;;;20.83;41.33
17438;BME280;73152;52.198;5.422;2024-02-26T14:10:51;100674.88;;;20.82;41.58
17438;BME280;73152;52.198;5.422;2024-02-26T14:13:20;100670.31;;;20.82;41.59
17438;BME280;73152;52.198;5.422;2024-02-26T14:15:52;100671.72;;;20.71;41.47
17438;BME280;73152;52.198;5.422;2024-02-26T14:18:21;100689.53;;;20.72;41.63
17438;BME280;73152;52.198;5.422;2024-02-26T14:20:50;100688.53;;;20.73;41.64
17438;BME280;73152;52.198;5.422;2024-02-26T14:23:20;100685.59;;;20.68;41.53
17438;BME280;73152;52.198;5.422;2024-02-26T14:25:49;100697.22;;;20.75;41.67
17438;BME280;73152;52.198;5.422;2024-02-26T14:28:17;100692.69;;;20.76;41.71
17438;BME280;73152;52.198;5.422;2024-02-26T14:30:47;100703.44;;;20.76;41.79
17438;BME280;73152;52.198;5.422;2024-02-26T14:33:18;100709.69;;;20.76;41.94
17438;BME280;73152;52.198;5.422;2024-02-26T14:35:48;100716.72;;;20.77;41.76
17438;BME280;73152;52.198;5.422;2024-02-26T14:38:17;100707.63;;;20.78;42.06
17438;BME280;73152;52.198;5.422;2024-02-26T14:40:45;100718.38;;;20.78;41.99
17438;BME280;73152;52.198;5.422;2024-02-26T14:43:14;100722.72;;;20.79;41.89
17438;BME280;73152;52.198;5.422;2024-02-26T14:45:43;100733.94;;;20.83;42.12
17438;BME280;73152;52.198;5.422;2024-02-26T14:48:12;100730.63;;;20.81;42.26
17438;BME280;73152;52.198;5.422;2024-02-26T14:50:44;100733.31;;;20.81;42.16
17438;BME280;73152;52.198;5.422;2024-02-26T14:53:13;100737.47;;;20.84;41.98
17438;BME280;73152;52.198;5.422;2024-02-26T14:55:42;100736.19;;;20.79;42.36
17438;BME280;73152;52.198;5.422;2024-02-26T14:58:11;100752.81;;;20.83;42.25
17438;BME280;73152;52.198;5.422;2024-02-26T15:00:40;100745.56;;;20.84;42.44
17438;BME280;73152;52.198;5.422;2024-02-26T15:03:09;100749.91;;;20.85;42.55
17438;BME280;73152;52.198;5.422;2024-02-26T15:05:39;100756.34;;;20.84;42.37
17438;BME280;73152;52.198;5.422;2024-02-26T15:08:11;100759.84;;;20.84;42.26
17438;BME280;73152;52.198;5.422;2024-02-26T15:10:41;100758.19;;;20.83;42.16
17438;BME280;73152;52.198;5.422;2024-02-26T15:13:14;100767.13;;;20.84;42.43
17438;BME280;73152;52.198;5.422;2024-02-26T15:15:44;100762.53;;;20.84;42.22
17438;BME280;73152;52.198;5.422;2024-02-26T15:18:13;100767.91;;;20.84;42.30
17438;BME280;73152;52.198;5.422;2024-02-26T15:20:44;100772.06;;;20.87;42.06
17438;BME280;73152;52.198;5.422;2024-02-26T15:23:15;100772.28;;;20.85;42.15
17438;BME280;73152;52.198;5.422;2024-02-26T15:25:45;100778.50;;;20.86;42.24
17438;BME280;73152;52.198;5.422;2024-02-26T15:28:14;100780.38;;;20.85;42.04